sensor_id;sensor_type;location;lat;lon;timestamp;P1;durP1;ratioP1;P2;durP2;ratioP2
76604;SDS011;65496;50.978;16.998;2022-12-18T00:01:04;24.55;;;17.40;;
76604;SDS011;65496;50.978;16.998;2022-12-18T00:03:42;21.65;;;15.68;;
76604;SDS011;65496;50.978;16.998;2022-12-18T00:06:09;23.55;;;15.48;;
76604;SDS011;65496;50.978;16.998;2022-12-18T00:08:35;24.60;;;16.92;;
76604;SDS011;65496;50.978;16.998;2022-12-18T00:11:08;23.25;;;15.50;;
76604;SDS011;65496;50.978;16.998;2022-12-18T00:13:36;22.55;;;16.50;;
76604;SDS011;65496;50.978;16.998;2022-12-18T00:16:03;23.75;;;15.35;;
76604;SDS011;65496;50.978;16.998;2022-12-18T00:18:31;25.52;;;15.50;;
76604;SDS011;65496;50.978;16.998;2022-12-18T00:20:58;22.05;;;16.08;;
76604;SDS011;65496;50.978;16.998;2022-12-18T00:23:26;21.83;;;14.35;;
76604;SDS011;65496;50.978;16.998;2022-12-18T00:25:52;24.30;;;15.02;;
76604;SDS011;65496;50.978;16.998;2022-12-18T00:28:19;19.60;;;15.18;;
76604;SDS011;65496;50.978;16.998;2022-12-18T00:30:45;20.02;;;14.88;;
76604;SDS011;65496;50.978;16.998;2022-12-18T00:33:11;22.25;;;14.77;;
76604;SDS011;65496;50.978;16.998;2022-12-18T00:35:37;19.95;;;13.32;;
76604;SDS011;65496;50.978;16.998;2022-12-18T00:38:03;19.15;;;14.43;;
76604;SDS011;65496;50.978;16.998;2022-12-18T00:40:30;22.52;;;16.13;;
76604;SDS011;65496;50.978;16.998;2022-12-18T00:42:56;21.50;;;15.05;;
76604;SDS011;65496;50.978;16.998;2022-12-18T00:45:23;19.08;;;14.73;;
76604;SDS011;65496;50.978;16.998;2022-12-18T00:47:55;21.00;;;15.27;;
76604;SDS011;65496;50.978;16.998;2022-12-18T00:50:22;22.27;;;15.73;;
76604;SDS011;65496;50.978;16.998;2022-12-18T00:52:49;23.00;;;14.95;;
76604;SDS011;65496;50.978;16.998;2022-12-18T00:55:15;21.55;;;15.27;;
76604;SDS011;65496;50.978;16.998;2022-12-18T00:57:42;21.27;;;13.43;;
76604;SDS011;65496;50.978;16.998;2022-12-18T01:00:09;20.92;;;15.00;;
76604;SDS011;65496;50.978;16.998;2022-12-18T01:02:38;20.17;;;14.80;;
76604;SDS011;65496;50.978;16.998;2022-12-18T01:05:05;18.05;;;13.35;;
76604;SDS011;65496;50.978;16.998;2022-12-18T01:07:32;19.85;;;14.82;;
76604;SDS011;65496;50.978;16.998;2022-12-18T01:09:57;21.50;;;14.02;;
76604;SDS011;65496;50.978;16.998;2022-12-18T01:12:24;17.83;;;13.48;;
76604;SDS011;65496;50.978;16.998;2022-12-18T01:14:49;19.38;;;13.98;;
76604;SDS011;65496;50.978;16.998;2022-12-18T01:17:16;19.40;;;13.05;;
76604;SDS011;65496;50.978;16.998;2022-12-18T01:19:41;18.67;;;13.50;;
76604;SDS011;65496;50.978;16.998;2022-12-18T01:22:08;18.13;;;12.68;;
76604;SDS011;65496;50.978;16.998;2022-12-18T01:24:34;17.13;;;12.57;;
76604;SDS011;65496;50.978;16.998;2022-12-18T01:27:00;16.15;;;12.45;;
76604;SDS011;65496;50.978;16.998;2022-12-18T01:29:26;18.25;;;12.43;;
76604;SDS011;65496;50.978;16.998;2022-12-18T01:31:54;20.10;;;13.77;;
76604;SDS011;65496;50.978;16.998;2022-12-18T01:34:20;18.33;;;13.82;;
76604;SDS011;65496;50.978;16.998;2022-12-18T01:36:46;18.10;;;13.63;;
76604;SDS011;65496;50.978;16.998;2022-12-18T01:39:13;17.67;;;12.57;;
76604;SDS011;65496;50.978;16.998;2022-12-18T01:41:40;18.95;;;12.95;;
76604;SDS011;65496;50.978;16.998;2022-12-18T01:47:30;16.63;;;12.52;;
76604;SDS011;65496;50.978;16.998;2022-12-18T01:50:19;17.83;;;12.75;;
76604;SDS011;65496;50.978;16.998;2022-12-18T01:55:32;17.40;;;13.07;;
76604;SDS011;65496;50.978;16.998;2022-12-18T01:58:06;18.75;;;12.48;;
76604;SDS011;65496;50.978;16.998;2022-12-18T02:00:32;16.92;;;11.90;;
76604;SDS011;65496;50.978;16.998;2022-12-18T02:02:59;16.58;;;11.93;;
76604;SDS011;65496;50.978;16.998;2022-12-18T02:11:07;15.93;;;12.38;;
76604;SDS011;65496;50.978;16.998;2022-12-18T02:19:20;17.38;;;11.60;;
76604;SDS011;65496;50.978;16.998;2022-12-18T02:22:11;15.40;;;11.88;;
76604;SDS011;65496;50.978;16.998;2022-12-18T02:27:38;17.15;;;11.68;;
76604;SDS011;65496;50.978;16.998;2022-12-18T02:30:06;15.60;;;11.02;;
76604;SDS011;65496;50.978;16.998;2022-12-18T02:32:34;14.20;;;11.32;;
76604;SDS011;65496;50.978;16.998;2022-12-18T02:35:06;16.25;;;10.93;;
76604;SDS011;65496;50.978;16.998;2022-12-18T02:37:35;16.83;;;11.30;;
76604;SDS011;65496;50.978;16.998;2022-12-18T02:40:05;17.77;;;11.70;;
76604;SDS011;65496;50.978;16.998;2022-12-18T02:42:31;14.73;;;11.93;;
76604;SDS011;65496;50.978;16.998;2022-12-18T02:44:58;13.98;;;10.75;;
76604;SDS011;65496;50.978;16.998;2022-12-18T02:47:25;16.17;;;10.73;;
76604;SDS011;65496;50.978;16.998;2022-12-18T02:50:18;15.07;;;10.07;;
76604;SDS011;65496;50.978;16.998;2022-12-18T02:56:01;15.60;;;12.02;;
76604;SDS011;65496;50.978;16.998;2022-12-18T02:58:51;15.63;;;12.23;;
76604;SDS011;65496;50.978;16.998;2022-12-18T03:02:11;15.50;;;10.18;;
76604;SDS011;65496;50.978;16.998;2022-12-18T03:04:39;16.23;;;10.43;;
76604;SDS011;65496;50.978;16.998;2022-12-18T03:07:15;14.43;;;9.60;;
76604;SDS011;65496;50.978;16.998;2022-12-18T03:09:47;14.32;;;10.05;;
76604;SDS011;65496;50.978;16.998;2022-12-18T03:12:21;13.93;;;10.73;;
76604;SDS011;65496;50.978;16.998;2022-12-18T03:17:52;13.15;;;9.98;;
76604;SDS011;65496;50.978;16.998;2022-12-18T03:20:24;14.38;;;10.80;;
76604;SDS011;65496;50.978;16.998;2022-12-18T03:22:56;14.65;;;10.02;;
76604;SDS011;65496;50.978;16.998;2022-12-18T03:25:27;12.95;;;9.73;;
76604;SDS011;65496;50.978;16.998;2022-12-18T03:27:56;15.15;;;10.48;;
76604;SDS011;65496;50.978;16.998;2022-12-18T03:30:26;15.30;;;11.00;;
76604;SDS011;65496;50.978;16.998;2022-12-18T03:35:45;14.50;;;10.45;;
76604;SDS011;65496;50.978;16.998;2022-12-18T03:38:11;15.00;;;9.80;;
76604;SDS011;65496;50.978;16.998;2022-12-18T03:40:41;13.27;;;9.75;;
76604;SDS011;65496;50.978;16.998;2022-12-18T03:45:52;12.15;;;9.05;;
76604;SDS011;65496;50.978;16.998;2022-12-18T03:48:29;13.13;;;9.02;;
76604;SDS011;65496;50.978;16.998;2022-12-18T03:51:09;13.40;;;8.77;;
76604;SDS011;65496;50.978;16.998;2022-12-18T03:56:15;11.43;;;8.65;;
76604;SDS011;65496;50.978;16.998;2022-12-18T03:58:43;12.02;;;9.52;;
76604;SDS011;65496;50.978;16.998;2022-12-18T04:01:12;11.65;;;8.65;;
76604;SDS011;65496;50.978;16.998;2022-12-18T04:03:40;13.40;;;10.05;;
76604;SDS011;65496;50.978;16.998;2022-12-18T04:06:08;12.88;;;8.77;;
76604;SDS011;65496;50.978;16.998;2022-12-18T04:08:36;13.48;;;10.07;;
76604;SDS011;65496;50.978;16.998;2022-12-18T04:11:03;12.48;;;9.73;;
76604;SDS011;65496;50.978;16.998;2022-12-18T04:13:34;11.32;;;8.98;;
76604;SDS011;65496;50.978;16.998;2022-12-18T04:16:01;11.98;;;9.32;;
76604;SDS011;65496;50.978;16.998;2022-12-18T04:18:28;12.35;;;8.80;;
76604;SDS011;65496;50.978;16.998;2022-12-18T04:20:54;13.32;;;9.85;;
76604;SDS011;65496;50.978;16.998;2022-12-18T04:23:20;11.88;;;8.57;;
76604;SDS011;65496;50.978;16.998;2022-12-18T04:25:46;12.95;;;9.13;;
76604;SDS011;65496;50.978;16.998;2022-12-18T04:28:13;14.13;;;9.27;;
76604;SDS011;65496;50.978;16.998;2022-12-18T04:30:39;12.77;;;9.82;;
76604;SDS011;65496;50.978;16.998;2022-12-18T04:33:12;11.05;;;8.60;;
76604;SDS011;65496;50.978;16.998;2022-12-18T04:35:41;12.77;;;9.55;;
76604;SDS011;65496;50.978;16.998;2022-12-18T04:38:08;11.25;;;8.38;;
76604;SDS011;65496;50.978;16.998;2022-12-18T04:40:35;11.93;;;8.93;;
76604;SDS011;65496;50.978;16.998;2022-12-18T04:43:02;12.00;;;8.63;;
76604;SDS011;65496;50.978;16.998;2022-12-18T04:45:32;13.48;;;8.77;;
76604;SDS011;65496;50.978;16.998;2022-12-18T04:47:59;12.40;;;9.02;;
76604;SDS011;65496;50.978;16.998;2022-12-18T04:50:26;11.27;;;9.40;;
76604;SDS011;65496;50.978;16.998;2022-12-18T04:52:53;12.90;;;9.32;;
76604;SDS011;65496;50.978;16.998;2022-12-18T04:55:19;11.85;;;9.05;;
76604;SDS011;65496;50.978;16.998;2022-12-18T04:57:45;10.75;;;8.13;;
76604;SDS011;65496;50.978;16.998;2022-12-18T05:00:11;12.40;;;9.40;;
76604;SDS011;65496;50.978;16.998;2022-12-18T05:02:38;12.10;;;9.07;;
76604;SDS011;65496;50.978;16.998;2022-12-18T05:05:04;11.93;;;8.65;;
76604;SDS011;65496;50.978;16.998;2022-12-18T05:07:31;11.02;;;9.00;;
76604;SDS011;65496;50.978;16.998;2022-12-18T05:09:57;11.60;;;8.85;;
76604;SDS011;65496;50.978;16.998;2022-12-18T05:12:23;12.45;;;8.98;;
76604;SDS011;65496;50.978;16.998;2022-12-18T05:14:49;11.93;;;9.70;;
76604;SDS011;65496;50.978;16.998;2022-12-18T05:17:15;10.73;;;8.52;;
76604;SDS011;65496;50.978;16.998;2022-12-18T05:19:41;12.23;;;9.15;;
76604;SDS011;65496;50.978;16.998;2022-12-18T05:22:07;13.07;;;9.57;;
76604;SDS011;65496;50.978;16.998;2022-12-18T05:24:33;10.52;;;7.93;;
76604;SDS011;65496;50.978;16.998;2022-12-18T05:26:59;12.80;;;9.63;;
76604;SDS011;65496;50.978;16.998;2022-12-18T05:29:25;10.02;;;8.43;;
76604;SDS011;65496;50.978;16.998;2022-12-18T05:31:52;9.85;;;7.70;;
76604;SDS011;65496;50.978;16.998;2022-12-18T05:34:18;12.52;;;8.60;;
76604;SDS011;65496;50.978;16.998;2022-12-18T05:36:44;12.00;;;8.55;;
76604;SDS011;65496;50.978;16.998;2022-12-18T05:39:10;11.95;;;8.88;;
76604;SDS011;65496;50.978;16.998;2022-12-18T05:41:36;11.70;;;9.20;;
76604;SDS011;65496;50.978;16.998;2022-12-18T05:44:02;10.43;;;7.78;;
76604;SDS011;65496;50.978;16.998;2022-12-18T05:46:28;13.63;;;9.77;;
76604;SDS011;65496;50.978;16.998;2022-12-18T05:48:54;11.25;;;8.00;;
76604;SDS011;65496;50.978;16.998;2022-12-18T05:51:21;12.13;;;9.02;;
76604;SDS011;65496;50.978;16.998;2022-12-18T05:53:48;10.68;;;8.23;;
76604;SDS011;65496;50.978;16.998;2022-12-18T05:56:16;12.57;;;8.50;;
76604;SDS011;65496;50.978;16.998;2022-12-18T05:58:44;10.27;;;8.10;;
76604;SDS011;65496;50.978;16.998;2022-12-18T06:01:11;10.32;;;7.65;;
76604;SDS011;65496;50.978;16.998;2022-12-18T06:03:38;11.73;;;8.27;;
76604;SDS011;65496;50.978;16.998;2022-12-18T06:06:12;10.38;;;8.00;;
76604;SDS011;65496;50.978;16.998;2022-12-18T06:08:38;11.32;;;7.90;;
76604;SDS011;65496;50.978;16.998;2022-12-18T06:11:05;11.75;;;8.10;;
76604;SDS011;65496;50.978;16.998;2022-12-18T06:13:30;9.85;;;7.93;;
76604;SDS011;65496;50.978;16.998;2022-12-18T06:15:57;11.02;;;7.68;;
76604;SDS011;65496;50.978;16.998;2022-12-18T06:18:22;12.63;;;9.05;;
76604;SDS011;65496;50.978;16.998;2022-12-18T06:20:55;11.77;;;8.75;;
76604;SDS011;65496;50.978;16.998;2022-12-18T06:23:22;8.90;;;7.15;;
76604;SDS011;65496;50.978;16.998;2022-12-18T06:25:48;10.45;;;7.53;;
76604;SDS011;65496;50.978;16.998;2022-12-18T06:28:14;10.65;;;7.85;;
76604;SDS011;65496;50.978;16.998;2022-12-18T06:30:43;9.95;;;7.65;;
76604;SDS011;65496;50.978;16.998;2022-12-18T06:33:09;11.13;;;7.78;;
76604;SDS011;65496;50.978;16.998;2022-12-18T06:35:36;10.65;;;8.27;;
76604;SDS011;65496;50.978;16.998;2022-12-18T06:38:02;9.50;;;7.47;;
76604;SDS011;65496;50.978;16.998;2022-12-18T06:40:28;11.48;;;8.15;;
76604;SDS011;65496;50.978;16.998;2022-12-18T06:42:54;12.65;;;9.05;;
76604;SDS011;65496;50.978;16.998;2022-12-18T06:45:20;11.57;;;7.65;;
76604;SDS011;65496;50.978;16.998;2022-12-18T06:47:46;12.05;;;7.65;;
76604;SDS011;65496;50.978;16.998;2022-12-18T06:50:13;10.77;;;7.57;;
76604;SDS011;65496;50.978;16.998;2022-12-18T06:52:39;9.60;;;7.68;;
76604;SDS011;65496;50.978;16.998;2022-12-18T06:55:10;10.63;;;7.82;;
76604;SDS011;65496;50.978;16.998;2022-12-18T06:57:36;9.98;;;7.43;;
76604;SDS011;65496;50.978;16.998;2022-12-18T07:00:04;9.63;;;6.75;;
76604;SDS011;65496;50.978;16.998;2022-12-18T07:02:31;9.88;;;6.93;;
76604;SDS011;65496;50.978;16.998;2022-12-18T07:04:58;9.40;;;6.93;;
76604;SDS011;65496;50.978;16.998;2022-12-18T07:07:24;10.15;;;7.22;;
76604;SDS011;65496;50.978;16.998;2022-12-18T07:09:50;9.40;;;7.32;;
76604;SDS011;65496;50.978;16.998;2022-12-18T07:12:16;8.63;;;7.05;;
76604;SDS011;65496;50.978;16.998;2022-12-18T07:14:43;9.60;;;7.68;;
76604;SDS011;65496;50.978;16.998;2022-12-18T07:17:09;12.98;;;6.93;;
76604;SDS011;65496;50.978;16.998;2022-12-18T07:19:35;8.80;;;6.70;;
76604;SDS011;65496;50.978;16.998;2022-12-18T07:22:01;8.73;;;7.47;;
76604;SDS011;65496;50.978;16.998;2022-12-18T07:24:27;11.25;;;6.95;;
76604;SDS011;65496;50.978;16.998;2022-12-18T07:26:53;9.95;;;6.90;;
76604;SDS011;65496;50.978;16.998;2022-12-18T07:29:20;9.93;;;6.82;;
76604;SDS011;65496;50.978;16.998;2022-12-18T07:31:46;8.60;;;6.75;;
76604;SDS011;65496;50.978;16.998;2022-12-18T07:34:13;12.85;;;6.90;;
76604;SDS011;65496;50.978;16.998;2022-12-18T07:36:40;9.57;;;7.10;;
76604;SDS011;65496;50.978;16.998;2022-12-18T07:39:07;10.30;;;7.68;;
76604;SDS011;65496;50.978;16.998;2022-12-18T07:41:33;9.98;;;6.80;;
76604;SDS011;65496;50.978;16.998;2022-12-18T07:43:59;9.32;;;7.38;;
76604;SDS011;65496;50.978;16.998;2022-12-18T07:46:25;10.30;;;7.75;;
76604;SDS011;65496;50.978;16.998;2022-12-18T07:48:51;10.77;;;7.22;;
76604;SDS011;65496;50.978;16.998;2022-12-18T07:51:17;10.23;;;7.40;;
76604;SDS011;65496;50.978;16.998;2022-12-18T07:53:44;8.80;;;7.05;;
76604;SDS011;65496;50.978;16.998;2022-12-18T07:56:10;7.65;;;6.05;;
76604;SDS011;65496;50.978;16.998;2022-12-18T07:58:38;12.40;;;6.90;;
76604;SDS011;65496;50.978;16.998;2022-12-18T08:01:07;8.38;;;6.65;;
76604;SDS011;65496;50.978;16.998;2022-12-18T08:03:35;10.70;;;7.82;;
76604;SDS011;65496;50.978;16.998;2022-12-18T08:06:03;10.38;;;7.75;;
76604;SDS011;65496;50.978;16.998;2022-12-18T08:08:32;9.95;;;7.25;;
76604;SDS011;65496;50.978;16.998;2022-12-18T08:10:58;9.85;;;7.20;;
76604;SDS011;65496;50.978;16.998;2022-12-18T08:13:25;10.00;;;7.00;;
76604;SDS011;65496;50.978;16.998;2022-12-18T08:15:59;8.77;;;6.97;;
76604;SDS011;65496;50.978;16.998;2022-12-18T08:18:27;11.05;;;7.97;;
76604;SDS011;65496;50.978;16.998;2022-12-18T08:20:53;12.27;;;7.20;;
76604;SDS011;65496;50.978;16.998;2022-12-18T08:23:20;9.57;;;7.30;;
76604;SDS011;65496;50.978;16.998;2022-12-18T08:25:46;11.90;;;8.20;;
76604;SDS011;65496;50.978;16.998;2022-12-18T08:28:13;16.65;;;8.15;;
76604;SDS011;65496;50.978;16.998;2022-12-18T08:30:38;11.13;;;7.13;;
76604;SDS011;65496;50.978;16.998;2022-12-18T08:33:05;10.35;;;7.30;;
76604;SDS011;65496;50.978;16.998;2022-12-18T08:35:34;14.13;;;8.18;;
76604;SDS011;65496;50.978;16.998;2022-12-18T08:40:29;10.93;;;7.90;;
76604;SDS011;65496;50.978;16.998;2022-12-18T08:42:55;13.82;;;9.05;;
76604;SDS011;65496;50.978;16.998;2022-12-18T08:45:47;11.25;;;7.55;;
76604;SDS011;65496;50.978;16.998;2022-12-18T08:48:13;13.57;;;8.35;;
76604;SDS011;65496;50.978;16.998;2022-12-18T08:50:40;12.07;;;8.60;;
76604;SDS011;65496;50.978;16.998;2022-12-18T08:53:06;16.42;;;9.43;;
76604;SDS011;65496;50.978;16.998;2022-12-18T08:55:32;16.98;;;9.68;;
76604;SDS011;65496;50.978;16.998;2022-12-18T08:57:58;12.52;;;9.02;;
76604;SDS011;65496;50.978;16.998;2022-12-18T09:00:24;14.25;;;9.13;;
76604;SDS011;65496;50.978;16.998;2022-12-18T09:02:50;13.57;;;8.77;;
76604;SDS011;65496;50.978;16.998;2022-12-18T09:05:16;12.48;;;9.30;;
76604;SDS011;65496;50.978;16.998;2022-12-18T09:07:42;13.15;;;9.10;;
76604;SDS011;65496;50.978;16.998;2022-12-18T09:10:10;14.23;;;9.13;;
76604;SDS011;65496;50.978;16.998;2022-12-18T09:12:42;13.05;;;8.43;;
76604;SDS011;65496;50.978;16.998;2022-12-18T09:15:08;12.63;;;8.80;;
76604;SDS011;65496;50.978;16.998;2022-12-18T09:17:35;15.32;;;9.02;;
76604;SDS011;65496;50.978;16.998;2022-12-18T09:20:01;12.65;;;8.93;;
76604;SDS011;65496;50.978;16.998;2022-12-18T09:22:27;14.55;;;9.50;;
76604;SDS011;65496;50.978;16.998;2022-12-18T09:24:53;15.90;;;9.98;;
76604;SDS011;65496;50.978;16.998;2022-12-18T09:27:19;16.85;;;10.13;;
76604;SDS011;65496;50.978;16.998;2022-12-18T09:29:45;14.27;;;10.95;;
76604;SDS011;65496;50.978;16.998;2022-12-18T09:32:11;14.30;;;9.52;;
76604;SDS011;65496;50.978;16.998;2022-12-18T09:34:37;14.90;;;10.27;;
76604;SDS011;65496;50.978;16.998;2022-12-18T09:37:03;12.07;;;8.52;;
76604;SDS011;65496;50.978;16.998;2022-12-18T09:39:29;12.75;;;8.98;;
76604;SDS011;65496;50.978;16.998;2022-12-18T09:41:56;14.15;;;8.75;;
76604;SDS011;65496;50.978;16.998;2022-12-18T09:44:27;12.00;;;8.48;;
76604;SDS011;65496;50.978;16.998;2022-12-18T09:47:23;12.05;;;8.55;;
76604;SDS011;65496;50.978;16.998;2022-12-18T09:49:59;14.75;;;9.23;;
76604;SDS011;65496;50.978;16.998;2022-12-18T09:52:31;11.55;;;8.50;;
76604;SDS011;65496;50.978;16.998;2022-12-18T09:58:16;15.55;;;9.70;;
76604;SDS011;65496;50.978;16.998;2022-12-18T10:00:43;12.82;;;8.93;;
76604;SDS011;65496;50.978;16.998;2022-12-18T10:03:10;12.30;;;8.35;;
76604;SDS011;65496;50.978;16.998;2022-12-18T10:10:36;14.77;;;9.93;;
76604;SDS011;65496;50.978;16.998;2022-12-18T10:13:26;19.17;;;12.60;;
76604;SDS011;65496;50.978;16.998;2022-12-18T10:21:39;16.08;;;10.20;;
76604;SDS011;65496;50.978;16.998;2022-12-18T10:24:20;17.92;;;12.25;;
76604;SDS011;65496;50.978;16.998;2022-12-18T10:26:48;18.33;;;11.88;;
76604;SDS011;65496;50.978;16.998;2022-12-18T10:29:15;19.42;;;11.98;;
76604;SDS011;65496;50.978;16.998;2022-12-18T10:31:42;16.40;;;10.60;;
76604;SDS011;65496;50.978;16.998;2022-12-18T10:34:10;16.70;;;10.95;;
76604;SDS011;65496;50.978;16.998;2022-12-18T10:36:37;18.50;;;12.27;;
76604;SDS011;65496;50.978;16.998;2022-12-18T10:39:23;20.20;;;12.43;;
76604;SDS011;65496;50.978;16.998;2022-12-18T10:41:59;17.77;;;11.02;;
76604;SDS011;65496;50.978;16.998;2022-12-18T10:44:37;15.60;;;11.23;;
76604;SDS011;65496;50.978;16.998;2022-12-18T10:47:04;20.17;;;11.63;;
76604;SDS011;65496;50.978;16.998;2022-12-18T10:49:32;17.95;;;11.30;;
76604;SDS011;65496;50.978;16.998;2022-12-18T10:52:19;16.58;;;11.15;;
76604;SDS011;65496;50.978;16.998;2022-12-18T10:54:49;17.38;;;10.82;;
76604;SDS011;65496;50.978;16.998;2022-12-18T10:57:34;17.40;;;11.43;;
76604;SDS011;65496;50.978;16.998;2022-12-18T11:02:47;16.88;;;11.10;;
76604;SDS011;65496;50.978;16.998;2022-12-18T11:05:24;16.27;;;10.85;;
76604;SDS011;65496;50.978;16.998;2022-12-18T11:07:59;16.92;;;11.15;;
76604;SDS011;65496;50.978;16.998;2022-12-18T11:10:28;15.02;;;10.57;;
76604;SDS011;65496;50.978;16.998;2022-12-18T11:13:10;17.52;;;11.48;;
76604;SDS011;65496;50.978;16.998;2022-12-18T11:15:41;15.18;;;10.82;;
76604;SDS011;65496;50.978;16.998;2022-12-18T11:18:17;16.73;;;11.38;;
76604;SDS011;65496;50.978;16.998;2022-12-18T11:21:07;16.70;;;10.00;;
76604;SDS011;65496;50.978;16.998;2022-12-18T11:23:36;15.27;;;10.68;;
76604;SDS011;65496;50.978;16.998;2022-12-18T11:26:10;14.02;;;10.48;;
76604;SDS011;65496;50.978;16.998;2022-12-18T11:28:52;14.13;;;9.77;;
76604;SDS011;65496;50.978;16.998;2022-12-18T11:31:33;12.85;;;10.02;;
76604;SDS011;65496;50.978;16.998;2022-12-18T11:34:12;16.17;;;10.90;;
76604;SDS011;65496;50.978;16.998;2022-12-18T11:36:53;14.30;;;10.75;;
76604;SDS011;65496;50.978;16.998;2022-12-18T11:42:27;15.02;;;10.38;;
76604;SDS011;65496;50.978;16.998;2022-12-18T11:45:03;16.77;;;11.80;;
76604;SDS011;65496;50.978;16.998;2022-12-18T11:53:14;17.17;;;10.75;;
76604;SDS011;65496;50.978;16.998;2022-12-18T11:55:49;14.10;;;10.43;;
76604;SDS011;65496;50.978;16.998;2022-12-18T12:01:11;15.43;;;9.63;;
76604;SDS011;65496;50.978;16.998;2022-12-18T12:12:20;18.40;;;10.25;;
76604;SDS011;65496;50.978;16.998;2022-12-18T12:15:31;14.23;;;9.80;;
76604;SDS011;65496;50.978;16.998;2022-12-18T12:18:13;14.75;;;9.98;;
76604;SDS011;65496;50.978;16.998;2022-12-18T12:23:39;13.32;;;9.10;;
76604;SDS011;65496;50.978;16.998;2022-12-18T12:26:11;16.05;;;11.00;;
76604;SDS011;65496;50.978;16.998;2022-12-18T12:28:51;14.73;;;10.15;;
76604;SDS011;65496;50.978;16.998;2022-12-18T12:34:20;13.80;;;9.75;;
76604;SDS011;65496;50.978;16.998;2022-12-18T12:37:26;13.05;;;9.48;;
76604;SDS011;65496;50.978;16.998;2022-12-18T12:39:59;14.77;;;9.27;;
76604;SDS011;65496;50.978;16.998;2022-12-18T12:42:34;16.95;;;9.27;;
76604;SDS011;65496;50.978;16.998;2022-12-18T12:45:40;16.88;;;10.10;;
76604;SDS011;65496;50.978;16.998;2022-12-18T12:48:31;15.35;;;8.95;;
76604;SDS011;65496;50.978;16.998;2022-12-18T12:51:19;20.70;;;12.65;;
76604;SDS011;65496;50.978;16.998;2022-12-18T12:53:48;22.60;;;14.00;;
76604;SDS011;65496;50.978;16.998;2022-12-18T12:56:16;21.35;;;13.38;;
76604;SDS011;65496;50.978;16.998;2022-12-18T13:01:34;18.33;;;11.77;;
76604;SDS011;65496;50.978;16.998;2022-12-18T13:10:11;15.38;;;9.77;;
76604;SDS011;65496;50.978;16.998;2022-12-18T13:12:51;16.17;;;10.50;;
76604;SDS011;65496;50.978;16.998;2022-12-18T13:15:25;13.63;;;9.52;;
76604;SDS011;65496;50.978;16.998;2022-12-18T13:25:50;16.00;;;11.13;;
76604;SDS011;65496;50.978;16.998;2022-12-18T13:28:21;12.73;;;8.95;;
76604;SDS011;65496;50.978;16.998;2022-12-18T13:36:08;13.70;;;9.70;;
76604;SDS011;65496;50.978;16.998;2022-12-18T13:38:35;13.82;;;9.57;;
76604;SDS011;65496;50.978;16.998;2022-12-18T13:43:43;13.50;;;8.95;;
76604;SDS011;65496;50.978;16.998;2022-12-18T13:46:22;22.55;;;13.18;;
76604;SDS011;65496;50.978;16.998;2022-12-18T13:51:43;36.75;;;23.67;;
76604;SDS011;65496;50.978;16.998;2022-12-18T13:57:01;37.72;;;25.40;;
76604;SDS011;65496;50.978;16.998;2022-12-18T13:59:34;32.45;;;27.38;;
76604;SDS011;65496;50.978;16.998;2022-12-18T14:02:19;34.88;;;28.58;;
76604;SDS011;65496;50.978;16.998;2022-12-18T14:04:48;30.05;;;26.45;;
76604;SDS011;65496;50.978;16.998;2022-12-18T14:07:19;34.95;;;26.25;;
76604;SDS011;65496;50.978;16.998;2022-12-18T14:09:59;27.08;;;21.85;;
76604;SDS011;65496;50.978;16.998;2022-12-18T14:12:28;28.30;;;22.67;;
76604;SDS011;65496;50.978;16.998;2022-12-18T14:18:24;23.48;;;19.77;;
76604;SDS011;65496;50.978;16.998;2022-12-18T14:20:55;25.17;;;21.30;;
76604;SDS011;65496;50.978;16.998;2022-12-18T14:23:37;24.83;;;19.23;;
76604;SDS011;65496;50.978;16.998;2022-12-18T14:26:26;23.30;;;18.65;;
76604;SDS011;65496;50.978;16.998;2022-12-18T14:28:55;20.83;;;18.30;;
76604;SDS011;65496;50.978;16.998;2022-12-18T14:31:24;24.88;;;21.02;;
76604;SDS011;65496;50.978;16.998;2022-12-18T14:33:52;24.30;;;17.65;;
76604;SDS011;65496;50.978;16.998;2022-12-18T14:36:23;21.98;;;18.50;;
76604;SDS011;65496;50.978;16.998;2022-12-18T14:38:51;20.10;;;16.15;;
76604;SDS011;65496;50.978;16.998;2022-12-18T14:41:24;19.08;;;16.85;;
76604;SDS011;65496;50.978;16.998;2022-12-18T14:43:53;19.35;;;15.82;;
76604;SDS011;65496;50.978;16.998;2022-12-18T14:52:00;21.13;;;15.68;;
76604;SDS011;65496;50.978;16.998;2022-12-18T14:54:29;19.27;;;14.40;;
76604;SDS011;65496;50.978;16.998;2022-12-18T14:56:59;18.50;;;14.32;;
76604;SDS011;65496;50.978;16.998;2022-12-18T14:59:28;16.08;;;13.55;;
76604;SDS011;65496;50.978;16.998;2022-12-18T15:02:15;18.27;;;14.07;;
76604;SDS011;65496;50.978;16.998;2022-12-18T15:05:14;18.58;;;12.90;;
76604;SDS011;65496;50.978;16.998;2022-12-18T15:07:53;18.35;;;12.50;;
76604;SDS011;65496;50.978;16.998;2022-12-18T15:12:49;17.92;;;11.70;;
76604;SDS011;65496;50.978;16.998;2022-12-18T15:20:50;60.38;;;38.53;;
76604;SDS011;65496;50.978;16.998;2022-12-18T15:23:17;34.97;;;24.52;;
76604;SDS011;65496;50.978;16.998;2022-12-18T15:26:10;37.63;;;25.73;;
76604;SDS011;65496;50.978;16.998;2022-12-18T15:28:48;29.02;;;20.63;;
76604;SDS011;65496;50.978;16.998;2022-12-18T15:33:43;29.05;;;19.30;;
76604;SDS011;65496;50.978;16.998;2022-12-18T15:36:25;23.75;;;14.88;;
76604;SDS011;65496;50.978;16.998;2022-12-18T15:38:52;21.23;;;14.23;;
76604;SDS011;65496;50.978;16.998;2022-12-18T15:41:20;23.23;;;14.50;;
76604;SDS011;65496;50.978;16.998;2022-12-18T15:43:48;18.60;;;12.98;;
76604;SDS011;65496;50.978;16.998;2022-12-18T15:46:17;20.23;;;12.70;;
76604;SDS011;65496;50.978;16.998;2022-12-18T15:48:50;19.92;;;12.70;;
76604;SDS011;65496;50.978;16.998;2022-12-18T15:51:21;19.38;;;12.15;;
76604;SDS011;65496;50.978;16.998;2022-12-18T15:53:51;19.27;;;12.50;;
76604;SDS011;65496;50.978;16.998;2022-12-18T15:56:20;19.17;;;12.23;;
76604;SDS011;65496;50.978;16.998;2022-12-18T15:59:13;18.98;;;12.00;;
76604;SDS011;65496;50.978;16.998;2022-12-18T16:01:41;19.30;;;12.18;;
76604;SDS011;65496;50.978;16.998;2022-12-18T16:04:13;17.25;;;11.68;;
76604;SDS011;65496;50.978;16.998;2022-12-18T16:06:42;17.98;;;10.95;;
76604;SDS011;65496;50.978;16.998;2022-12-18T16:09:08;16.67;;;11.10;;
76604;SDS011;65496;50.978;16.998;2022-12-18T16:11:36;19.23;;;12.48;;
76604;SDS011;65496;50.978;16.998;2022-12-18T16:16:52;15.10;;;10.20;;
76604;SDS011;65496;50.978;16.998;2022-12-18T16:19:20;16.52;;;9.55;;
76604;SDS011;65496;50.978;16.998;2022-12-18T16:21:53;14.23;;;9.50;;
76604;SDS011;65496;50.978;16.998;2022-12-18T16:24:21;15.65;;;9.65;;
76604;SDS011;65496;50.978;16.998;2022-12-18T16:26:49;15.52;;;9.52;;
76604;SDS011;65496;50.978;16.998;2022-12-18T16:29:17;14.88;;;10.10;;
76604;SDS011;65496;50.978;16.998;2022-12-18T16:31:44;16.50;;;9.15;;
76604;SDS011;65496;50.978;16.998;2022-12-18T16:34:15;13.23;;;9.73;;
76604;SDS011;65496;50.978;16.998;2022-12-18T16:36:54;23.05;;;10.65;;
76604;SDS011;65496;50.978;16.998;2022-12-18T16:39:25;14.32;;;9.65;;
76604;SDS011;65496;50.978;16.998;2022-12-18T16:41:52;17.55;;;11.05;;
76604;SDS011;65496;50.978;16.998;2022-12-18T16:44:19;12.32;;;10.00;;
76604;SDS011;65496;50.978;16.998;2022-12-18T16:46:46;15.75;;;9.32;;